Disclaimer

Please do not use the information listed here in-flight or in-navigation, as they are not provided to us by the airports but are provided by volunteers, so they might be outdated.

Search


Regions


Airport information page

Radio informations:
Aerodrome flight information system (AFIS) - 122.7 MHz

Airport informations:
Latitude: 56° 29' 57.00" N
Longitude: 006° 52' 09.00" W
Elevation: 38 feet - 12 meters
Operating hours: Remarks
Operating agency: Civil government, landing fees and diplomatic clearance may be required
Timezone: UTC 0(+1DT) - Last Sunday in March to last Sunday in October
Fuel: N/A

Runway information:
05/23 - 4600 x 98 feet< - >1402 x 30 meters
11/29 - 2690 x 62 feet< - >820 x 19 meters
17/35 - 1968 x 58 feet< - >600 x 18 meters

Recent METARs:
EGPU 160520Z AUTO 17017KT 9999 NCD 10/07 Q1017
EGPU 160620Z AUTO 16016KT 9999 NCD 10/08 Q1017
EGPU 160650Z AUTO 15018KT 9000 FEW009/// 10/09 Q1017

Airport on the map: